createdAt,value
2019-02-26T00:02:14.834Z,41.40
2019-02-26T00:04:44.860Z,43.47
2019-02-26T00:07:18.251Z,36.73
2019-02-26T00:09:51.217Z,43.50
2019-02-26T00:12:21.907Z,37.63
2019-02-26T00:14:52.066Z,41.60
2019-02-26T00:17:21.829Z,37.90
2019-02-26T00:19:52.910Z,36.47
2019-02-26T00:22:22.679Z,34.93
2019-02-26T00:24:52.550Z,33.87
2019-02-26T00:27:23.503Z,29.90
2019-02-26T00:29:55.248Z,35.20
2019-02-26T00:32:25.071Z,32.50
2019-02-26T00:34:55.723Z,32.57
2019-02-26T00:37:26.454Z,34.10
2019-02-26T00:39:59.094Z,29.50
2019-02-26T00:42:31.287Z,32.47
2019-02-26T00:45:02.958Z,33.50
2019-02-26T00:47:33.896Z,29.77
2019-02-26T00:50:07.306Z,30.27
2019-02-26T00:52:39.186Z,28.13
2019-02-26T00:55:09.538Z,30.17
2019-02-26T00:57:40.673Z,34.43
2019-02-26T01:00:14.658Z,30.30
2019-02-26T01:02:44.519Z,30.40
2019-02-26T01:05:15.791Z,32.07
2019-02-26T01:07:47.359Z,36.63
2019-02-26T01:10:19.286Z,31.20
2019-02-26T01:12:49.798Z,31.43
2019-02-26T01:15:20.773Z,30.13
2019-02-26T01:17:50.553Z,29.90
2019-02-26T01:20:24.601Z,26.40
2019-02-26T01:22:53.210Z,29.33
2019-02-26T01:25:23.106Z,24.13
2019-02-26T01:27:53.280Z,26.07
2019-02-26T01:30:27.037Z,29.00
2019-02-26T01:32:58.174Z,24.87
2019-02-26T01:35:30.569Z,27.17
2019-02-26T01:38:00.521Z,27.17
2019-02-26T01:40:32.650Z,25.93
2019-02-26T01:43:03.135Z,27.27
2019-02-26T01:45:33.894Z,29.40
2019-02-26T01:48:04.102Z,29.13
2019-02-26T01:50:37.828Z,30.67
2019-02-26T01:53:07.678Z,25.27
2019-02-26T01:55:39.321Z,32.50
2019-02-26T01:58:08.938Z,28.30
2019-02-26T02:00:40.927Z,27.73
2019-02-26T02:03:11.027Z,27.57
2019-02-26T02:06:35.294Z,31.67
2019-02-26T02:09:25.068Z,27.67
2019-02-26T02:11:57.373Z,25.87
2019-02-26T02:14:26.645Z,25.27
2019-02-26T02:22:33.098Z,24.07
2019-02-26T02:25:04.044Z,25.93
2019-02-26T02:27:34.151Z,22.23
2019-02-26T02:30:14.182Z,23.90
2019-02-26T02:32:41.261Z,22.50
2019-02-26T02:35:12.614Z,28.53
2019-02-26T02:37:42.648Z,24.60
2019-02-26T02:40:14.138Z,23.37
2019-02-26T02:42:48.438Z,27.20
2019-02-26T02:45:20.153Z,26.80
2019-02-26T02:47:47.246Z,26.63
2019-02-26T02:50:18.675Z,22.03
2019-02-26T02:52:50.597Z,25.13
2019-02-26T02:55:20.192Z,30.43
2019-02-26T02:57:53.078Z,28.57
2019-02-26T03:00:23.911Z,31.10
2019-02-26T03:02:56.157Z,32.10
2019-02-26T03:05:25.745Z,30.47
2019-02-26T03:07:56.692Z,28.43
2019-02-26T03:10:30.826Z,27.73
2019-02-26T03:13:00.324Z,26.43
2019-02-26T03:15:35.199Z,28.77
2019-02-26T03:18:04.160Z,25.23
2019-02-26T03:20:39.754Z,28.03
2019-02-26T03:23:07.331Z,27.80
2019-02-26T03:25:37.471Z,27.67
2019-02-26T03:28:07.437Z,28.83
2019-02-26T03:30:43.901Z,20.80
2019-02-26T03:33:11.065Z,22.00
2019-02-26T03:35:40.979Z,23.67
2019-02-26T03:38:10.999Z,28.90
2019-02-26T03:40:41.946Z,30.40
2019-02-26T03:43:13.129Z,23.17
2019-02-26T03:45:47.350Z,20.40
2019-02-26T03:48:19.254Z,20.03
2019-02-26T03:50:46.198Z,20.37
2019-02-26T03:53:16.087Z,20.33
2019-02-26T03:55:46.020Z,20.20
2019-02-26T03:58:16.006Z,19.10
2019-02-26T04:00:46.923Z,20.13
2019-02-26T04:03:17.612Z,19.73
2019-02-26T04:05:47.744Z,17.97
2019-02-26T04:08:20.025Z,21.53
2019-02-26T04:10:49.971Z,18.47
2019-02-26T04:13:20.768Z,17.00
2019-02-26T04:15:53.220Z,16.60
2019-02-26T04:18:22.256Z,19.27
2019-02-26T04:20:52.187Z,16.50
2019-02-26T04:23:22.091Z,15.57
2019-02-26T04:25:59.872Z,19.30
2019-02-26T04:28:37.092Z,14.23
2019-02-26T04:31:15.815Z,13.43
2019-02-26T04:33:59.565Z,20.57
2019-02-26T04:36:42.749Z,13.63
2019-02-26T04:39:22.607Z,14.73
2019-02-26T04:42:15.361Z,12.43
2019-02-26T04:45:09.585Z,13.13
2019-02-26T04:47:51.416Z,16.63
2019-02-26T04:50:23.193Z,19.47
2019-02-26T04:52:52.435Z,12.97
2019-02-26T04:55:22.432Z,12.73
2019-02-26T04:57:54.030Z,13.73
2019-02-26T05:00:27.739Z,15.13
2019-02-26T05:02:56.685Z,12.80
2019-02-26T05:05:28.537Z,16.03
2019-02-26T05:07:58.036Z,13.83
2019-02-26T05:10:29.931Z,15.60
2019-02-26T05:13:03.185Z,13.90
2019-02-26T05:15:33.270Z,12.30
2019-02-26T05:18:03.364Z,12.80
2019-02-26T05:20:36.759Z,15.30
2019-02-26T05:23:06.312Z,13.80
2019-02-26T05:25:39.739Z,16.53
2019-02-26T05:28:11.437Z,15.33
2019-02-26T05:30:41.218Z,13.93
2019-02-26T05:33:11.971Z,15.50
2019-02-26T05:35:44.284Z,16.33
2019-02-26T05:38:13.420Z,14.10
2019-02-26T05:40:45.035Z,14.87
2019-02-26T05:43:14.823Z,18.63
2019-02-26T05:45:44.637Z,19.37
2019-02-26T05:48:16.146Z,13.60
2019-02-26T05:50:46.006Z,27.93
2019-02-26T05:53:15.864Z,29.73
2019-02-26T05:55:48.565Z,24.03
2019-02-26T05:58:19.376Z,13.13
2019-02-26T06:00:48.821Z,16.80
2019-02-26T06:03:18.889Z,14.53
2019-02-26T06:05:51.360Z,11.07
2019-02-26T06:08:20.358Z,19.17
2019-02-26T06:10:50.361Z,15.20
2019-02-26T06:13:21.168Z,14.30
2019-02-26T06:15:52.102Z,16.30
2019-02-26T06:18:22.761Z,13.30
2019-02-26T06:20:53.532Z,16.53
2019-02-26T06:23:25.543Z,12.67
2019-02-26T06:25:59.076Z,13.37
2019-02-26T06:28:28.043Z,15.87
2019-02-26T06:30:58.010Z,16.30
2019-02-26T06:33:31.748Z,15.13
2019-02-26T06:35:59.882Z,21.53
2019-02-26T06:38:32.744Z,15.83
2019-02-26T06:41:02.377Z,22.17
2019-02-26T06:43:35.451Z,17.43
2019-02-26T06:46:05.344Z,18.70
2019-02-26T06:48:35.188Z,17.00
2019-02-26T06:51:07.076Z,16.30
2019-02-26T06:53:36.618Z,12.33
2019-02-26T06:56:06.607Z,14.27
2019-02-26T06:58:38.163Z,12.73
2019-02-26T07:01:09.494Z,15.17
2019-02-26T07:03:40.869Z,12.70
2019-02-26T07:06:10.966Z,17.00
2019-02-26T07:08:44.459Z,17.05
2019-02-26T07:11:13.957Z,18.40
2019-02-26T07:13:44.767Z,11.93
2019-02-26T07:16:15.337Z,13.30
2019-02-26T07:18:46.842Z,13.85
2019-02-26T07:21:17.302Z,16.07
2019-02-26T07:23:47.639Z,12.28
2019-02-26T07:26:18.541Z,16.23
2019-02-26T07:28:51.058Z,26.47
2019-02-26T07:31:21.771Z,26.37
2019-02-26T07:33:53.311Z,26.10
2019-02-26T07:36:25.773Z,27.30
2019-02-26T07:38:56.573Z,23.42
2019-02-26T07:41:29.834Z,18.90
2019-02-26T07:43:59.947Z,17.23
2019-02-26T07:46:33.165Z,14.47
2019-02-26T07:49:04.865Z,15.38
2019-02-26T07:51:36.252Z,13.70
2019-02-26T07:54:06.311Z,19.62
2019-02-26T07:56:36.222Z,18.10
2019-02-26T07:59:09.431Z,15.80
2019-02-26T08:01:39.779Z,18.07
2019-02-26T08:04:11.598Z,19.50
2019-02-26T08:06:41.878Z,17.82
2019-02-26T08:09:14.638Z,19.32
2019-02-26T08:11:48.495Z,20.80
2019-02-26T08:14:18.506Z,14.53
2019-02-26T08:16:53.673Z,19.57
2019-02-26T08:19:22.497Z,324.58
2019-02-26T08:21:54.870Z,48.33
2019-02-26T08:24:25.137Z,22.40
2019-02-26T08:26:55.727Z,17.12
2019-02-26T08:29:27.244Z,21.40
2019-02-26T08:31:59.626Z,26.90
2019-02-26T08:34:30.163Z,24.25
2019-02-26T08:37:00.678Z,20.48
2019-02-26T08:39:33.062Z,14.80
2019-02-26T08:42:09.178Z,16.50
2019-02-26T08:44:39.516Z,18.40
2019-02-26T08:47:13.456Z,27.30
2019-02-26T08:49:45.153Z,34.58
2019-02-26T08:52:16.890Z,21.62
2019-02-26T08:54:47.221Z,22.40
2019-02-26T08:57:17.737Z,21.25
2019-02-26T08:59:49.639Z,23.22
2019-02-26T09:02:20.295Z,22.20
2019-02-26T09:04:50.772Z,15.88
2019-02-26T09:07:21.856Z,19.62
2019-02-26T09:09:55.371Z,23.15
2019-02-26T09:12:27.245Z,20.10
2019-02-26T09:14:58.901Z,19.27
2019-02-26T09:17:31.863Z,20.37
2019-02-26T09:20:09.303Z,18.57
2019-02-26T09:22:34.465Z,18.15
2019-02-26T09:25:05.932Z,17.50
2019-02-26T09:27:42.862Z,18.92
2019-02-26T09:30:14.053Z,18.75
2019-02-26T09:32:45.763Z,21.57
2019-02-26T09:35:20.391Z,32.93
2019-02-26T09:37:52.798Z,24.00
2019-02-26T09:40:26.082Z,23.30
2019-02-26T09:42:58.171Z,23.15
2019-02-26T09:45:30.132Z,35.13
2019-02-26T09:48:01.278Z,28.87
2019-02-26T09:50:32.700Z,29.07
2019-02-26T09:53:03.158Z,34.43
2019-02-26T09:55:33.514Z,37.60
2019-02-26T09:58:04.089Z,48.55
2019-02-26T10:00:34.601Z,43.58
2019-02-26T10:03:07.445Z,42.45
2019-02-26T10:05:37.065Z,41.02
2019-02-26T10:08:07.689Z,40.92
2019-02-26T10:10:39.773Z,48.08
2019-02-26T10:13:10.475Z,44.48
2019-02-26T10:15:42.822Z,39.48
2019-02-26T10:18:13.911Z,49.05
2019-02-26T10:20:47.014Z,56.68
2019-02-26T10:23:16.337Z,41.05
2019-02-26T10:25:46.899Z,42.78
2019-02-26T10:28:21.550Z,45.65
2019-02-26T10:30:54.425Z,53.50
2019-02-26T10:33:24.692Z,48.00
2019-02-26T10:35:55.136Z,44.58
2019-02-26T10:38:29.623Z,43.05
2019-02-26T10:40:59.692Z,49.75
2019-02-26T10:43:29.713Z,63.35
2019-02-26T10:46:00.059Z,55.48
2019-02-26T10:48:30.530Z,59.05
2019-02-26T10:51:00.899Z,62.25
2019-02-26T10:53:31.555Z,61.25
2019-02-26T10:56:02.006Z,58.48
2019-02-26T10:58:32.495Z,61.10
2019-02-26T11:01:05.165Z,56.73
2019-02-26T11:03:37.882Z,53.98
2019-02-26T11:06:08.151Z,67.05
2019-02-26T11:08:40.216Z,57.03
2019-02-26T11:11:13.037Z,57.95
2019-02-26T11:13:45.679Z,58.15
2019-02-26T11:16:21.832Z,59.20
2019-02-26T11:18:47.947Z,54.18
2019-02-26T11:21:18.315Z,61.25
2019-02-26T11:23:49.015Z,56.05
2019-02-26T11:26:19.709Z,64.97
2019-02-26T11:28:50.370Z,59.85
2019-02-26T11:31:25.357Z,52.20
2019-02-26T11:33:56.413Z,61.80
2019-02-26T11:36:25.172Z,51.20
2019-02-26T11:38:59.012Z,59.73
2019-02-26T11:41:29.291Z,53.58
2019-02-26T11:44:00.923Z,62.48
2019-02-26T11:46:34.285Z,51.05
2019-02-26T11:49:04.454Z,48.25
2019-02-26T11:51:37.372Z,60.95
2019-02-26T11:54:08.239Z,52.95
2019-02-26T11:56:42.525Z,49.85
2019-02-26T11:59:14.882Z,72.42
2019-02-26T12:01:47.353Z,67.70
2019-02-26T12:04:18.223Z,78.22
2019-02-26T12:06:48.757Z,61.77
2019-02-26T12:09:20.314Z,65.45
2019-02-26T12:11:50.690Z,61.70
2019-02-26T12:14:22.426Z,59.88
2019-02-26T12:16:53.053Z,64.22
2019-02-26T12:19:28.318Z,70.37
2019-02-26T12:22:03.170Z,69.10
2019-02-26T12:24:35.955Z,69.42
2019-02-26T12:27:07.384Z,72.78
2019-02-26T12:29:40.198Z,66.57
2019-02-26T12:32:10.624Z,76.37
2019-02-26T12:34:42.376Z,67.05
2019-02-26T12:37:13.615Z,70.25
2019-02-26T12:39:46.505Z,71.02
2019-02-26T12:42:18.456Z,67.45
2019-02-26T12:44:49.016Z,68.42
2019-02-26T12:47:21.777Z,72.97
2019-02-26T12:49:51.792Z,71.80
2019-02-26T12:52:25.088Z,74.07
2019-02-26T12:54:54.945Z,67.82
2019-02-26T12:57:29.237Z,62.85
2019-02-26T12:59:59.471Z,63.25
2019-02-26T13:02:29.840Z,65.72
2019-02-26T13:05:00.377Z,65.15
2019-02-26T13:07:30.782Z,61.37
2019-02-26T13:10:04.054Z,70.45
2019-02-26T13:12:35.931Z,65.22
2019-02-26T13:15:09.917Z,64.37
2019-02-26T13:17:40.471Z,70.97
2019-02-26T13:20:14.174Z,66.97
2019-02-26T13:22:45.959Z,68.07
2019-02-26T13:25:20.726Z,63.35
2019-02-26T13:27:50.791Z,67.40
2019-02-26T13:30:23.741Z,63.98
2019-02-26T13:32:58.026Z,71.40
2019-02-26T13:35:26.350Z,65.22
2019-02-26T13:38:02.191Z,60.30
2019-02-26T13:40:38.421Z,60.23
2019-02-26T13:43:06.912Z,61.40
2019-02-26T13:45:38.373Z,63.68
2019-02-26T13:48:08.949Z,65.08
2019-02-26T13:50:40.470Z,63.45
2019-02-26T13:53:10.842Z,61.80
2019-02-26T13:55:41.532Z,58.23
2019-02-26T13:58:12.401Z,64.17
2019-02-26T14:00:43.127Z,58.98
2019-02-26T14:03:13.891Z,59.13
2019-02-26T14:05:44.487Z,57.27
2019-02-26T14:08:14.942Z,53.65
2019-02-26T14:10:45.569Z,57.67
2019-02-26T14:13:15.933Z,48.45
2019-02-26T14:15:46.598Z,55.95
2019-02-26T14:18:17.131Z,58.58
2019-02-26T14:20:47.623Z,54.80
2019-02-26T14:23:19.506Z,62.13
2019-02-26T14:25:50.081Z,64.75
2019-02-26T14:28:21.051Z,64.05
2019-02-26T14:30:51.651Z,61.30
2019-02-26T14:33:22.086Z,57.38
2019-02-26T14:35:53.002Z,67.53
2019-02-26T14:38:23.738Z,55.67
2019-02-26T14:40:54.449Z,60.58
2019-02-26T14:43:24.945Z,57.23
2019-02-26T14:45:55.491Z,52.75
2019-02-26T14:48:25.922Z,53.28
2019-02-26T14:50:56.482Z,55.63
2019-02-26T14:53:27.639Z,54.08
2019-02-26T14:55:58.194Z,52.05
2019-02-26T14:58:28.640Z,56.18
2019-02-26T15:01:00.421Z,51.37
2019-02-26T15:03:32.024Z,52.00
2019-02-26T15:06:02.584Z,57.80
2019-02-26T15:08:32.961Z,57.50
2019-02-26T15:11:03.609Z,54.63
2019-02-26T15:13:34.043Z,58.10
2019-02-26T15:16:04.547Z,46.95
2019-02-26T15:18:35.788Z,48.20
2019-02-26T15:21:07.432Z,46.85
2019-02-26T15:23:37.782Z,53.05
2019-02-26T15:26:08.359Z,52.98
2019-02-26T15:28:38.729Z,59.10
2019-02-26T15:31:09.228Z,50.43
2019-02-26T15:33:39.641Z,48.98
2019-02-26T15:36:10.121Z,50.92
2019-02-26T15:38:41.559Z,59.65
2019-02-26T15:41:12.191Z,59.13
2019-02-26T15:43:43.650Z,54.95
2019-02-26T15:46:14.110Z,55.88
2019-02-26T15:48:45.617Z,67.60
2019-02-26T15:51:19.868Z,58.13
2019-02-26T15:53:48.259Z,54.25
2019-02-26T15:56:18.860Z,68.10
2019-02-26T15:58:50.423Z,64.85
2019-02-26T16:01:21.282Z,67.35
2019-02-26T16:03:51.960Z,71.40
2019-02-26T16:06:22.526Z,72.25
2019-02-26T16:08:53.964Z,70.10
2019-02-26T16:11:24.623Z,65.83
2019-02-26T16:13:55.093Z,65.70
2019-02-26T16:16:25.663Z,66.15
2019-02-26T16:19:00.312Z,64.20
2019-02-26T16:21:29.204Z,71.22
2019-02-26T16:23:59.592Z,74.60
2019-02-26T16:26:30.264Z,67.58
2019-02-26T16:29:01.115Z,70.10
2019-02-26T16:31:32.196Z,70.60
2019-02-26T16:34:03.185Z,70.22
2019-02-26T16:36:33.680Z,65.47
2019-02-26T16:39:06.242Z,67.65
2019-02-26T16:41:38.999Z,77.50
2019-02-26T16:44:09.432Z,82.97
2019-02-26T16:46:42.078Z,66.97
2019-02-26T16:49:12.955Z,66.55
2019-02-26T16:51:43.508Z,65.52
2019-02-26T16:54:13.964Z,70.87
2019-02-26T16:56:44.417Z,73.02
2019-02-26T16:59:14.853Z,74.97
2019-02-26T17:01:46.190Z,75.03
2019-02-26T17:04:16.756Z,68.50
2019-02-26T17:06:47.231Z,64.03
2019-02-26T17:09:20.745Z,69.85
2019-02-26T17:11:50.853Z,70.10
2019-02-26T17:14:21.818Z,67.45
2019-02-26T17:16:53.370Z,68.67
2019-02-26T17:19:26.142Z,72.37
2019-02-26T17:21:56.639Z,66.55
2019-02-26T17:24:27.121Z,69.50
2019-02-26T17:26:57.674Z,72.80
2019-02-26T17:29:28.242Z,69.32
2019-02-26T17:31:58.832Z,76.28
2019-02-26T17:34:29.271Z,79.55
2019-02-26T17:36:59.709Z,78.80
2019-02-26T17:39:30.332Z,84.13
2019-02-26T17:42:01.551Z,77.55
2019-02-26T17:44:32.209Z,71.00
2019-02-26T17:47:02.783Z,73.80
2019-02-26T17:49:33.650Z,70.67
2019-02-26T17:52:06.534Z,75.75
2019-02-26T17:54:37.435Z,74.95
2019-02-26T17:57:09.709Z,73.80
2019-02-26T17:59:41.035Z,79.32
2019-02-26T18:02:13.439Z,73.12
2019-02-26T18:04:44.211Z,68.47
2019-02-26T18:07:14.692Z,70.62
2019-02-26T18:09:45.271Z,68.85
2019-02-26T18:12:15.826Z,74.90
2019-02-26T18:14:46.262Z,73.72
2019-02-26T18:17:16.749Z,71.42
2019-02-26T18:19:49.587Z,71.28
2019-02-26T18:22:21.879Z,72.22
2019-02-26T18:24:53.415Z,80.30
2019-02-26T18:27:23.975Z,78.35
2019-02-26T18:29:54.523Z,76.55
2019-02-26T18:32:25.139Z,75.90
2019-02-26T18:34:55.598Z,82.85
2019-02-26T18:37:26.264Z,80.30
2019-02-26T18:39:56.990Z,72.95
2019-02-26T18:42:27.731Z,81.05
2019-02-26T18:44:58.170Z,72.78
2019-02-26T18:47:29.007Z,73.33
2019-02-26T18:50:00.905Z,86.02
2019-02-26T18:52:31.884Z,85.03
2019-02-26T18:55:02.515Z,77.27
2019-02-26T18:57:35.653Z,78.05
2019-02-26T19:00:09.229Z,81.55
2019-02-26T19:02:42.895Z,78.07
2019-02-26T19:05:14.126Z,76.02
2019-02-26T19:07:46.920Z,93.70
2019-02-26T19:10:20.741Z,79.47
2019-02-26T19:12:51.139Z,70.72
2019-02-26T19:15:28.007Z,105.52
2019-02-26T19:18:02.270Z,105.70
2019-02-26T19:20:33.977Z,85.05
2019-02-26T19:23:05.888Z,78.95
2019-02-26T19:25:41.321Z,81.32
2019-02-26T19:28:10.718Z,80.07
2019-02-26T19:30:42.506Z,81.78
2019-02-26T19:33:14.319Z,83.12
2019-02-26T19:35:45.915Z,84.72
2019-02-26T19:38:17.005Z,82.95
2019-02-26T19:40:53.724Z,83.95
2019-02-26T19:43:25.971Z,69.07
2019-02-26T19:45:57.292Z,78.12
2019-02-26T19:48:30.497Z,91.35
2019-02-26T19:51:00.654Z,115.52
2019-02-26T19:53:34.489Z,86.80
2019-02-26T19:56:04.189Z,82.42
2019-02-26T19:58:36.234Z,79.47
2019-02-26T20:01:07.024Z,83.27
2019-02-26T20:03:40.187Z,81.50
2019-02-26T20:06:09.865Z,81.37
2019-02-26T20:08:40.610Z,70.97
2019-02-26T20:11:11.127Z,67.72
2019-02-26T20:13:42.209Z,70.85
2019-02-26T20:16:12.912Z,77.90
2019-02-26T20:18:44.576Z,68.28
2019-02-26T20:21:16.895Z,69.82
2019-02-26T20:23:47.167Z,72.97
2019-02-26T20:26:17.538Z,71.92
2019-02-26T20:28:49.274Z,85.12
2019-02-26T20:31:21.934Z,64.65
2019-02-26T20:33:52.154Z,64.97
2019-02-26T20:36:22.618Z,66.12
2019-02-26T20:38:54.560Z,63.83
2019-02-26T20:41:26.722Z,65.57
2019-02-26T20:43:59.221Z,56.40
2019-02-26T20:46:31.016Z,54.27
2019-02-26T20:49:01.816Z,58.35
2019-02-26T20:51:32.410Z,57.05
2019-02-26T20:54:02.904Z,56.95
2019-02-26T20:56:32.711Z,59.05
2019-02-26T20:59:04.488Z,58.02
2019-02-26T21:01:34.463Z,58.63
2019-02-26T21:04:05.873Z,57.33
2019-02-26T21:06:36.512Z,54.93
2019-02-26T21:09:07.721Z,50.43
2019-02-26T21:11:39.259Z,51.20
2019-02-26T21:14:09.985Z,50.98
2019-02-26T21:16:40.680Z,54.38
2019-02-26T21:19:11.557Z,58.78
2019-02-26T21:21:41.949Z,54.50
2019-02-26T21:24:11.912Z,53.38
2019-02-26T21:26:42.277Z,50.90
2019-02-26T21:29:13.807Z,51.55
2019-02-26T21:31:44.183Z,52.43
2019-02-26T21:34:14.931Z,46.20
2019-02-26T21:36:45.398Z,52.45
2019-02-26T21:39:16.899Z,50.50
2019-02-26T21:41:47.290Z,45.70
2019-02-26T21:44:17.812Z,47.90
2019-02-26T21:46:48.156Z,47.48
2019-02-26T21:49:21.709Z,42.38
2019-02-26T21:51:51.655Z,50.80
2019-02-26T21:54:24.560Z,94.70
2019-02-26T21:56:52.923Z,53.38
2019-02-26T21:59:24.413Z,43.73
2019-02-26T22:01:54.773Z,48.38
2019-02-26T22:04:26.176Z,39.60
2019-02-26T22:06:56.738Z,37.28
2019-02-26T22:09:29.944Z,42.10
2019-02-26T22:11:59.060Z,42.75
2019-02-26T22:14:29.006Z,40.58
2019-02-26T22:16:58.792Z,42.08
2019-02-26T22:19:30.299Z,38.23
2019-02-26T22:24:30.601Z,39.48
2019-02-26T22:27:00.385Z,36.88
2019-02-26T22:29:35.647Z,37.35
2019-02-26T22:32:04.803Z,44.13
2019-02-26T22:34:34.666Z,41.85
2019-02-26T22:37:07.257Z,45.33
2019-02-26T22:39:38.112Z,51.88
2019-02-26T22:42:08.597Z,47.08
2019-02-26T22:44:39.249Z,45.65
2019-02-26T22:47:09.595Z,52.10
2019-02-26T22:49:40.411Z,46.85
2019-02-26T22:52:10.771Z,40.40
2019-02-26T22:54:43.530Z,41.40
2019-02-26T22:57:13.231Z,37.15
2019-02-26T22:59:44.085Z,38.55
2019-02-26T23:02:14.132Z,37.28
2019-02-26T23:04:45.544Z,31.80
2019-02-26T23:07:15.997Z,31.60
2019-02-26T23:09:52.180Z,32.13
2019-02-26T23:12:21.450Z,28.45
2019-02-26T23:14:52.068Z,31.10
2019-02-26T23:17:24.903Z,39.42
2019-02-26T23:19:56.891Z,36.65
2019-02-26T23:22:27.222Z,30.65
2019-02-26T23:25:00.647Z,31.25
2019-02-26T23:27:30.161Z,28.12
2019-02-26T23:30:01.956Z,29.50
2019-02-26T23:32:32.812Z,27.30
2019-02-26T23:35:05.185Z,25.05
2019-02-26T23:37:35.557Z,24.27
2019-02-26T23:40:09.250Z,27.17
2019-02-26T23:42:39.907Z,26.42
2019-02-26T23:45:12.632Z,27.95
2019-02-26T23:47:42.481Z,23.47
2019-02-26T23:50:13.962Z,24.02
2019-02-26T23:52:44.309Z,29.57
2019-02-26T23:55:14.764Z,26.75
2019-02-26T23:57:45.303Z,22.27
